Hu Po Hai — VROW9 — position and weather

sailwx.info

Track history (hours):
 
Tides and Currents Weather Stations Pressure Air Temp Water Temp Dewpoint Dewpoint Depression Visibility Wind Speed Wind Dir Waves Ship Positions

Hu Po Hai

Last reported at 2017-Oct-08 15:20 UTC. Time now 2017-Oct-18 22:43 UTC.
Position N 35°24' E 014°31'.
Warning: this ship's position is 10 days out of date.

Length 180 m; draft 10 m.

Type: Cargo ship. MMSI: 477347500.

Date/timePositionNaut miles runAvg speedWind from/ knotsBaromVisibWave heightAir tempDewpointWater temp
2017-Oct-08 15:20N 35°24' E 014°31'513.9
2017-Oct-08 14:57N 35°25' E 014°24'813.3
2017-Oct-08 14:22N 35°27' E 014°16'613.7
2017-Oct-08 13:54N 35°32' E 014°10'613.8
2017-Oct-08 13:30N 35°35' E 014°05'713.8
2017-Oct-08 12:59N 35°40' E 013°58'  
2017-Oct-06 05:43N 36°43' E 000°21'313.8
2017-Oct-06 05:29N 36°43' E 000°17'813.8
2017-Oct-06 04:53N 36°41' E 000°07'4413.8
2017-Oct-06 01:42N 36°33' W 000°47'2814.1
2017-Oct-05 23:45N 36°29' W 001°21'414.0
2017-Oct-05 23:26N 36°28' W 001°27'614.2
2017-Oct-05 22:59N 36°27' W 001°34'1114.2
2017-Oct-05 22:12N 36°25' W 001°48'16813.7
2017-Oct-05 09:58N 36°01' W 005°14'613.6
2017-Oct-05 09:30N 35°59' W 005°21'713.1
2017-Oct-05 09:00N 35°57' W 005°28'  
2017-Oct-01 09:45N 35°59' W 007°27'312.7
2017-Oct-01 09:30N 35°57' W 007°29'611.8
2017-Oct-01 09:00N 35°51' W 007°30'1612.5
2017-Oct-01 07:42N 35°35' W 007°27'  
Track history (hours):
 
Tides and Currents Weather Stations Pressure Air Temp Water Temp Dewpoint Dewpoint Depression Visibility Wind Speed Wind Dir Waves Ship Positions

Hu Po Hai

Last reported at 2017-Oct-08 15:20 UTC. Time now 2017-Oct-18 22:43 UTC.
Position N 35°24' E 014°31'.
Warning: this ship's position is 10 days out of date.

Length 180 m; draft 10 m.

Type: Cargo ship. MMSI: 477347500.

Date/timePositionNaut miles runAvg speedWind from/ knotsBaromVisibWave heightAir tempDewpointWater temp
2017-Oct-08 15:20N 35°24' E 014°31'513.9
2017-Oct-08 14:57N 35°25' E 014°24'813.3
2017-Oct-08 14:22N 35°27' E 014°16'613.7
2017-Oct-08 13:54N 35°32' E 014°10'613.8
2017-Oct-08 13:30N 35°35' E 014°05'713.8
2017-Oct-08 12:59N 35°40' E 013°58'  
2017-Oct-06 05:43N 36°43' E 000°21'313.8
2017-Oct-06 05:29N 36°43' E 000°17'813.8
2017-Oct-06 04:53N 36°41' E 000°07'4413.8
2017-Oct-06 01:42N 36°33' W 000°47'2814.1
2017-Oct-05 23:45N 36°29' W 001°21'414.0
2017-Oct-05 23:26N 36°28' W 001°27'614.2
2017-Oct-05 22:59N 36°27' W 001°34'1114.2
2017-Oct-05 22:12N 36°25' W 001°48'16813.7
2017-Oct-05 09:58N 36°01' W 005°14'613.6
2017-Oct-05 09:30N 35°59' W 005°21'713.1
2017-Oct-05 09:00N 35°57' W 005°28'  
2017-Oct-01 09:45N 35°59' W 007°27'312.7
2017-Oct-01 09:30N 35°57' W 007°29'611.8
2017-Oct-01 09:00N 35°51' W 007°30'1612.5
2017-Oct-01 07:42N 35°35' W 007°27'  

Dump ship's entire track history